Time;durP1;ratioP1;P1;durP2;ratioP2;P2;SDS_P1;SDS_P2;PMS_P1;PMS_P2;Temp;Humidity;BMP_temperature;BMP_pressure;BME280_temperature;BME280_humidity;BME280_pressure;Samples;Min_cycle;Max_cycle;Signal;HPM_P1;HPM_P2
2023/04/23 00:00:51;;;;;;;6.57;5.60;;;9.10;53.40;;;;;;5073199;28;20036;-61
2023/04/23 00:03:19;;;;;;;7.18;5.30;;;9.10;50.80;;;;;;5072420;28;20028;-61
2023/04/23 00:05:46;;;;;;;7.65;6.05;;;9.10;58.30;;;;;;5072842;28;20127;-60
2023/04/23 00:08:14;;;;;;;6.95;5.18;;;9.10;58.20;;;;;;5072630;28;20020;-60
2023/04/23 00:10:40;;;;;;;7.75;5.45;;;9.10;59.30;;;;;;5073093;28;20105;-60
2023/04/23 00:13:40;;;;;;;5.72;4.70;;;9.20;53.80;;;;;;5073922;28;20056;-60
2023/04/23 00:16:06;;;;;;;9.52;5.07;;;9.20;53.80;;;;;;5073201;28;20032;-60
2023/04/23 00:18:32;;;;;;;9.07;5.28;;;9.20;57.40;;;;;;5072537;28;20032;-60
2023/04/23 00:20:57;;;;;;;6.15;5.07;;;9.30;59.70;;;;;;5073031;28;20490;-60
2023/04/23 00:23:23;;;;;;;7.43;5.05;;;9.20;60.50;;;;;;5072025;28;20090;-61
2023/04/23 00:25:49;;;;;;;7.93;4.85;;;9.10;60.50;;;;;;5073745;28;20029;-60
2023/04/23 00:28:15;;;;;;;10.40;5.93;;;9.10;55.40;;;;;;5073382;28;20025;-60
2023/04/23 00:30:41;;;;;;;7.38;6.05;;;9.10;54.70;;;;;;5073809;28;20020;-60
2023/04/23 00:33:06;;;;;;;9.50;6.22;;;9.10;51.40;;;;;;5073381;28;20033;-60
2023/04/23 00:35:32;;;;;;;9.55;5.35;;;9.10;53.10;;;;;;5073335;28;20036;-60
2023/04/23 00:37:58;;;;;;;6.90;6.10;;;9.10;52.50;;;;;;5073252;28;20025;-60
2023/04/23 00:40:23;;;;;;;9.35;5.72;;;9.10;51.60;;;;;;5073682;28;20042;-60
2023/04/23 00:42:52;;;;;;;6.40;5.32;;;9.00;54.70;;;;;;5072907;28;20423;-60
2023/04/23 00:45:18;;;;;;;6.32;5.70;;;9.10;51.30;;;;;;5072297;28;20032;-60
2023/04/23 00:47:45;;;;;;;8.50;5.60;;;9.10;42.90;;;;;;5072988;28;20056;-61
2023/04/23 00:50:12;;;;;;;9.93;6.20;;;9.20;44.00;;;;;;5072806;28;20020;-61
2023/04/23 00:52:39;;;;;;;8.48;6.35;;;9.10;33.80;;;;;;5072382;28;20055;-62
2023/04/23 00:55:07;;;;;;;10.13;6.18;;;9.00;37.40;;;;;;5072797;28;20379;-60
2023/04/23 00:57:33;;;;;;;7.00;5.65;;;9.00;36.50;;;;;;5072989;28;20028;-60
2023/04/23 00:59:59;;;;;;;9.25;5.75;;;9.00;46.80;;;;;;5071294;28;20534;-59
2023/04/23 01:02:27;;;;;;;8.10;5.63;;;9.00;44.50;;;;;;5072575;28;20032;-60
2023/04/23 01:04:53;;;;;;;10.02;6.47;;;9.00;47.50;;;;;;5072527;28;20039;-60
2023/04/23 01:07:20;;;;;;;11.07;5.47;;;9.00;45.30;;;;;;5073116;28;20104;-60
2023/04/23 01:09:46;;;;;;;7.43;5.88;;;9.00;44.10;;;;;;5072761;28;20074;-60
2023/04/23 01:12:14;;;;;;;11.05;5.47;;;9.00;42.80;;;;;;5072953;28;20376;-60
2023/04/23 01:14:41;;;;;;;7.53;4.90;;;9.10;41.50;;;;;;5071228;28;20081;-60
2023/04/23 01:17:11;;;;;;;9.50;5.13;;;9.00;42.50;;;;;;5071552;28;20430;-60
2023/04/23 01:19:37;;;;;;;8.65;5.10;;;9.00;40.30;;;;;;5071119;28;20496;-60
2023/04/23 01:22:10;;;;;;;7.32;5.55;;;8.80;44.00;;;;;;5070948;28;20032;-60
2023/04/23 01:24:37;;;;;;;6.43;5.82;;;8.60;57.70;;;;;;5070891;28;20029;-60
2023/04/23 01:27:03;;;;;;;6.60;5.90;;;8.50;69.80;;;;;;5071199;28;20395;-60
2023/04/23 01:29:29;;;;;;;8.63;5.65;;;8.50;67.60;;;;;;5071836;28;20025;-60
2023/04/23 01:31:56;;;;;;;8.80;6.13;;;8.50;69.10;;;;;;5072242;28;20024;-60
2023/04/23 01:34:22;;;;;;;8.82;6.43;;;8.50;64.30;;;;;;5071423;28;20063;-60
2023/04/23 01:36:48;;;;;;;9.73;6.57;;;8.60;69.40;;;;;;5072566;28;20460;-60
2023/04/23 01:39:14;;;;;;;8.55;6.65;;;8.70;65.80;;;;;;5072472;28;20364;-60
2023/04/23 01:41:40;;;;;;;7.57;6.75;;;8.70;63.10;;;;;;5072178;28;20028;-60
2023/04/23 01:44:06;;;;;;;14.05;7.10;;;8.80;60.80;;;;;;5072143;28;20087;-61
2023/04/23 01:46:32;;;;;;;8.65;7.20;;;8.80;58.70;;;;;;5071964;28;20024;-58
2023/04/23 01:48:58;;;;;;;9.45;6.45;;;8.80;60.10;;;;;;5072481;28;20364;-60
2023/04/23 01:51:24;;;;;;;7.72;6.00;;;8.70;62.10;;;;;;5071689;28;20032;-60
2023/04/23 01:53:50;;;;;;;7.53;6.28;;;8.70;63.50;;;;;;5072286;28;20023;-60
2023/04/23 01:56:18;;;;;;;6.82;5.78;;;8.80;66.60;;;;;;5071827;28;20517;-60
2023/04/23 01:58:44;;;;;;;7.45;5.50;;;8.70;66.90;;;;;;5071713;28;20030;-60
2023/04/23 02:01:10;;;;;;;9.60;6.47;;;8.80;70.60;;;;;;5071657;28;20411;-60
2023/04/23 02:03:36;;;;;;;11.55;6.70;;;8.80;65.00;;;;;;5072276;28;20024;-60
2023/04/23 02:06:03;;;;;;;12.07;6.78;;;8.90;69.60;;;;;;5072114;28;20399;-60
2023/04/23 02:08:29;;;;;;;14.25;7.05;;;8.90;67.20;;;;;;5071925;28;20052;-60
2023/04/23 02:10:55;;;;;;;7.32;6.25;;;9.00;69.50;;;;;;5071661;28;20059;-60
2023/04/23 02:13:21;;;;;;;7.45;5.88;;;9.00;68.30;;;;;;5071546;28;20387;-60
2023/04/23 02:15:46;;;;;;;7.28;5.78;;;9.00;66.30;;;;;;5071937;28;20052;-60
2023/04/23 02:18:12;;;;;;;9.80;6.82;;;9.10;71.50;;;;;;5071919;28;20020;-60
2023/04/23 02:20:39;;;;;;;9.15;5.97;;;9.20;68.40;;;;;;5072029;28;20067;-60
2023/04/23 02:23:06;;;;;;;8.98;5.90;;;9.20;64.20;;;;;;5070476;28;20033;-60
2023/04/23 02:25:32;;;;;;;10.05;6.55;;;9.20;62.80;;;;;;5071623;28;20129;-60
2023/04/23 02:28:00;;;;;;;13.13;6.18;;;9.30;68.40;;;;;;5071810;28;20021;-60
2023/04/23 02:30:26;;;;;;;6.60;5.93;;;9.30;62.80;;;;;;5071574;28;20023;-60
2023/04/23 02:32:52;;;;;;;15.52;7.03;;;9.40;60.60;;;;;;5070277;28;20028;-60
2023/04/23 02:35:18;;;;;;;7.18;6.47;;;9.40;63.40;;;;;;5071360;28;20036;-60
2023/04/23 02:37:43;;;;;;;7.05;6.20;;;9.50;61.00;;;;;;5071732;28;20048;-60
2023/04/23 02:40:09;;;;;;;12.93;7.18;;;9.50;55.30;;;;;;5071627;28;20035;-59
2023/04/23 02:42:35;;;;;;;6.85;6.15;;;9.60;56.30;;;;;;5069912;28;20536;-60
2023/04/23 02:45:01;;;;;;;8.40;6.03;;;9.50;59.70;;;;;;5071045;28;20029;-59
2023/04/23 02:47:26;;;;;;;9.55;6.55;;;9.60;55.90;;;;;;5071312;28;20024;-60
2023/04/23 02:49:52;;;;;;;8.32;6.45;;;9.70;59.40;;;;;;5071282;28;20013;-60
2023/04/23 02:52:18;;;;;;;7.75;6.47;;;9.70;61.10;;;;;;5070802;28;20029;-60
2023/04/23 02:54:43;;;;;;;15.00;6.25;;;9.60;58.00;;;;;;5071379;28;20021;-59
2023/04/23 02:57:11;;;;;;;8.52;6.28;;;9.60;53.90;;;;;;5070980;28;20028;-60
2023/04/23 02:59:37;;;;;;;7.28;6.32;;;9.60;61.60;;;;;;5071051;28;20561;-60
2023/04/23 03:02:02;;;;;;;9.18;6.55;;;9.60;61.00;;;;;;5070830;28;20056;-60
2023/04/23 03:04:28;;;;;;;7.35;6.60;;;9.60;63.00;;;;;;5070713;28;20037;-60
2023/04/23 03:06:54;;;;;;;7.78;6.32;;;9.60;64.80;;;;;;5071131;28;20025;-60
2023/04/23 03:09:20;;;;;;;6.55;5.95;;;9.60;66.10;;;;;;5071129;28;20504;-60
2023/04/23 03:11:45;;;;;;;12.18;6.20;;;9.60;72.50;;;;;;5071233;28;20060;-59
2023/04/23 03:14:11;;;;;;;10.18;6.60;;;9.60;68.50;;;;;;5070478;28;20028;-60
2023/04/23 03:16:36;;;;;;;6.75;6.05;;;9.50;69.90;;;;;;5071400;28;20020;-60
2023/04/23 03:19:02;;;;;;;9.55;5.75;;;9.60;69.40;;;;;;5071257;28;20055;-60
2023/04/23 03:21:28;;;;;;;7.13;6.30;;;9.60;67.90;;;;;;5071071;28;20032;-60
2023/04/23 03:23:54;;;;;;;12.35;6.18;;;9.60;72.50;;;;;;5070632;28;20056;-60
2023/04/23 03:26:19;;;;;;;12.38;6.40;;;9.60;71.60;;;;;;5070135;28;20024;-60
2023/04/23 03:28:45;;;;;;;7.80;6.40;;;9.60;71.90;;;;;;5070766;28;20475;-60
2023/04/23 03:31:11;;;;;;;9.23;6.10;;;9.60;70.80;;;;;;5070231;28;20024;-60
2023/04/23 03:33:36;;;;;;;8.05;6.68;;;9.70;73.80;;;;;;5070369;28;20116;-60
2023/04/23 03:36:02;;;;;;;7.00;5.75;;;9.70;71.40;;;;;;5070207;28;20021;-60
2023/04/23 03:38:28;;;;;;;7.85;6.10;;;9.70;72.00;;;;;;5070167;28;20017;-60
2023/04/23 03:40:54;;;;;;;6.97;6.28;;;9.70;71.20;;;;;;5069892;28;20566;-60
2023/04/23 03:43:19;;;;;;;9.85;6.63;;;9.70;70.80;;;;;;5069617;28;20095;-60
2023/04/23 03:45:45;;;;;;;9.38;5.63;;;9.70;69.80;;;;;;5068530;28;20075;-60
2023/04/23 03:48:11;;;;;;;7.72;6.20;;;9.70;72.00;;;;;;5069882;28;20584;-60
2023/04/23 03:50:39;;;;;;;11.13;6.13;;;9.70;73.10;;;;;;5069801;28;20104;-60
2023/04/23 03:53:06;;;;;;;9.90;6.30;;;9.70;73.30;;;;;;5070287;28;20039;-60
2023/04/23 03:55:31;;;;;;;9.52;6.18;;;9.70;72.70;;;;;;5070737;28;20571;-60
2023/04/23 03:58:00;;;;;;;6.75;5.82;;;9.70;68.40;;;;;;5072511;28;20020;-60
2023/04/23 04:00:26;;;;;;;11.60;6.00;;;9.70;72.10;;;;;;5073838;28;20109;-60
2023/04/23 04:02:51;;;;;;;9.15;5.65;;;9.60;73.30;;;;;;5074516;28;20459;-60
2023/04/23 04:05:17;;;;;;;6.72;5.75;;;9.60;75.10;;;;;;5073975;28;20031;-60
2023/04/23 04:07:43;;;;;;;7.20;5.82;;;9.50;73.30;;;;;;5072962;28;20074;-60
2023/04/23 04:10:09;;;;;;;6.55;5.30;;;9.50;73.70;;;;;;5074168;28;20035;-60
2023/04/23 04:12:35;;;;;;;7.40;5.95;;;9.50;75.60;;;;;;5074247;28;20023;-60
2023/04/23 04:15:02;;;;;;;8.15;6.40;;;9.60;74.80;;;;;;5074095;28;20044;-60
2023/04/23 04:17:27;;;;;;;11.23;5.43;;;9.60;74.40;;;;;;5072941;28;20112;-60
2023/04/23 04:19:53;;;;;;;6.20;5.55;;;9.70;74.00;;;;;;5074046;28;20116;-60
2023/04/23 04:22:19;;;;;;;5.60;5.10;;;9.70;71.40;;;;;;5073810;28;20067;-60
2023/04/23 04:24:46;;;;;;;7.13;5.35;;;9.70;71.10;;;;;;5074055;28;20651;-60
2023/04/23 04:27:12;;;;;;;7.43;5.57;;;9.70;70.00;;;;;;5073875;28;20017;-60
2023/04/23 04:29:39;;;;;;;8.40;5.72;;;9.80;70.30;;;;;;5073826;28;20024;-59
2023/04/23 04:32:06;;;;;;;9.00;5.38;;;9.90;71.40;;;;;;5074032;28;20047;-60
2023/04/23 04:34:32;;;;;;;6.47;5.07;;;9.90;68.30;;;;;;5073824;28;20397;-60
2023/04/23 04:36:58;;;;;;;13.27;5.97;;;9.90;66.50;;;;;;5072207;28;20120;-59
2023/04/23 04:39:23;;;;;;;12.35;5.50;;;9.90;68.80;;;;;;5072940;28;20111;-60
2023/04/23 04:41:49;;;;;;;11.35;5.45;;;9.90;70.40;;;;;;5072643;28;20020;-60
2023/04/23 04:44:15;;;;;;;8.35;5.60;;;9.90;68.90;;;;;;5073519;28;20036;-59
2023/04/23 04:46:41;;;;;;;12.00;6.75;;;9.90;69.50;;;;;;5072193;28;20028;-60
2023/04/23 04:49:10;;;;;;;6.55;5.93;;;9.90;71.00;;;;;;5073584;28;20472;-60
2023/04/23 04:51:37;;;;;;;72.65;38.58;;;9.90;70.30;;;;;;5072999;28;20024;-60
2023/04/23 04:54:03;;;;;;;24.10;8.75;;;10.00;72.30;;;;;;5073230;28;20035;-60
2023/04/23 04:56:29;;;;;;;20.13;10.57;;;10.10;72.20;;;;;;5073215;28;20036;-60
2023/04/23 04:58:55;;;;;;;10.05;5.88;;;10.20;74.30;;;;;;5072447;28;20109;-60
2023/04/23 05:01:25;;;;;;;6.82;4.80;;;10.20;72.60;;;;;;5072814;28;20027;-60
2023/04/23 05:03:51;;;;;;;15.90;5.13;;;10.40;64.30;;;;;;5072595;28;20027;-60
2023/04/23 05:06:17;;;;;;;7.57;5.70;;;10.40;59.90;;;;;;5072538;28;20112;-60
2023/04/23 05:08:46;;;;;;;6.38;5.47;;;10.30;62.00;;;;;;5072762;28;20103;-60
2023/04/23 05:11:16;;;;;;;6.78;5.55;;;10.30;61.20;;;;;;5072662;28;20457;-60
2023/04/23 05:13:43;;;;;;;17.27;10.27;;;10.40;65.50;;;;;;5073081;28;20052;-60
2023/04/23 05:16:10;;;;;;;17.38;10.43;;;10.40;69.50;;;;;;5072937;28;20108;-60
2023/04/23 05:18:40;;;;;;;20.95;11.90;;;10.50;66.10;;;;;;5072958;28;20052;-60
2023/04/23 05:21:06;;;;;;;12.13;8.70;;;10.60;66.70;;;;;;5071711;28;20025;-60
2023/04/23 05:23:33;;;;;;;16.83;9.10;;;10.80;62.70;;;;;;5072851;28;20020;-60
2023/04/23 05:25:58;;;;;;;13.70;9.07;;;10.90;62.50;;;;;;5072915;28;20052;-60
2023/04/23 05:28:24;;;;;;;5.10;4.60;;;11.00;65.70;;;;;;5072343;28;20498;-60
2023/04/23 05:30:51;;;;;;;7.45;6.15;;;11.30;46.80;;;;;;5072583;28;20356;-60
2023/04/23 05:33:17;;;;;;;13.68;5.45;;;11.50;32.30;;;;;;5072495;28;20021;-60
2023/04/23 05:35:42;;;;;;;11.52;6.00;;;11.50;17.10;;;;;;5072016;28;20085;-60
2023/04/23 05:38:09;;;;;;;7.93;5.93;;;11.50;23.20;;;;;;5072331;28;20031;-60
2023/04/23 05:40:34;;;;;;;6.38;5.70;;;11.70;17.20;;;;;;5072478;28;20380;-60
2023/04/23 05:43:00;;;;;;;15.00;4.85;;;12.00;9.20;;;;;;5072633;28;20047;-60
2023/04/23 05:45:27;;;;;;;6.57;5.05;;;12.20;1.00;;;;;;5072303;28;20048;-60
2023/04/23 05:47:52;;;;;;;9.77;5.18;;;12.40;1.00;;;;;;5070942;28;20021;-60
2023/04/23 05:50:18;;;;;;;7.53;5.15;;;12.40;1.00;;;;;;5070789;28;20650;-59
2023/04/23 05:52:44;;;;;;;8.57;5.30;;;12.50;1.00;;;;;;5072370;28;20028;-60
2023/04/23 05:55:10;;;;;;;8.38;5.82;;;12.80;1.00;;;;;;5072307;28;20476;-59
2023/04/23 05:57:37;;;;;;;12.95;5.45;;;12.90;1.00;;;;;;5072154;28;20154;-60
2023/04/23 06:00:04;;;;;;;5.63;4.55;;;12.90;1.00;;;;;;5070816;28;20040;-61
2023/04/23 06:02:32;;;;;;;7.25;5.40;;;12.80;1.00;;;;;;5071754;28;20521;-59
2023/04/23 06:04:59;;;;;;;7.65;6.85;;;13.00;1.00;;;;;;5071970;28;20048;-60
2023/04/23 06:07:24;;;;;;;6.28;5.45;;;13.00;1.00;;;;;;5071999;28;20065;-60
2023/04/23 06:09:50;;;;;;;6.40;5.25;;;13.10;1.00;;;;;;5070782;28;20024;-60
2023/04/23 06:12:17;;;;;;;6.03;4.85;;;13.10;1.00;;;;;;5071938;28;20023;-60
2023/04/23 06:14:42;;;;;;;6.72;4.93;;;13.10;1.00;;;;;;5071977;28;20368;-60
2023/04/23 06:17:08;;;;;;;9.07;5.72;;;12.90;1.00;;;;;;5071682;28;20032;-60
2023/04/23 06:19:33;;;;;;;8.60;6.03;;;13.00;1.00;;;;;;5072502;28;20099;-59
2023/04/23 06:21:59;;;;;;;7.15;5.45;;;13.30;1.00;;;;;;5071838;28;20464;-60
2023/04/23 06:24:25;;;;;;;9.02;6.25;;;13.40;1.00;;;;;;5071636;28;20037;-60
2023/04/23 06:26:50;;;;;;;8.98;5.50;;;13.40;1.00;;;;;;5071522;28;20467;-60
2023/04/23 06:29:16;;;;;;;12.40;6.38;;;13.30;1.00;;;;;;5071415;28;20013;-60
2023/04/23 06:31:42;;;;;;;8.40;5.38;;;13.40;1.00;;;;;;5071717;28;20523;-60
2023/04/23 06:34:07;;;;;;;6.75;5.00;;;13.60;1.00;;;;;;5071228;28;20032;-60
2023/04/23 06:36:34;;;;;;;6.53;4.95;;;13.60;1.00;;;;;;5070314;28;20635;-60
2023/04/23 06:38:59;;;;;;;8.32;4.82;;;13.90;1.00;;;;;;5071579;28;20032;-60
2023/04/23 06:41:25;;;;;;;6.45;4.72;;;14.20;1.00;;;;;;5068946;28;20081;-60
2023/04/23 06:43:50;;;;;;;5.45;4.80;;;14.30;1.00;;;;;;5069649;28;20624;-69
2023/04/23 06:46:16;;;;;;;7.50;5.28;;;14.50;1.00;;;;;;5071593;28;20036;-60
2023/04/23 06:48:42;;;;;;;6.75;4.70;;;14.60;1.00;;;;;;5071651;28;20364;-62
2023/04/23 06:51:08;;;;;;;10.32;5.13;;;14.70;1.00;;;;;;5072017;28;20028;-60
2023/04/23 06:53:33;;;;;;;11.45;4.72;;;14.80;99.90;;;;;;5070024;28;20468;-61
2023/04/23 06:55:59;;;;;;;6.43;4.70;;;15.00;99.90;;;;;;5070880;28;20099;-60
2023/04/23 06:58:30;;;;;;;7.53;4.60;;;15.10;91.10;;;;;;5071009;28;20111;-57
2023/04/23 07:00:58;;;;;;;4.20;3.72;;;15.30;21.70;;;;;;5070693;28;20040;-59
2023/04/23 07:03:27;;;;;;;4.90;4.18;;;15.50;99.90;;;;;;5070586;28;20024;-60
2023/04/23 07:05:53;;;;;;;4.60;3.67;;;15.40;99.90;;;;;;5071036;28;20032;-58
2023/04/23 07:08:20;;;;;;;5.38;4.10;;;15.60;1.00;;;;;;5070863;28;20024;-59
2023/04/23 07:10:46;;;;;;;4.50;3.92;;;15.70;1.00;;;;;;5070641;28;20123;-59
2023/04/23 07:13:12;;;;;;;4.72;4.20;;;15.80;1.00;;;;;;5070180;28;20116;-58
2023/04/23 07:15:37;;;;;;;5.05;3.88;;;16.00;99.90;;;;;;5071145;28;20029;-59
2023/04/23 07:18:05;;;;;;;6.53;3.58;;;16.10;1.00;;;;;;5070240;28;20021;-60
2023/04/23 07:20:31;;;;;;;5.22;3.78;;;16.20;1.00;;;;;;5066771;28;20035;-60
2023/04/23 07:22:58;;;;;;;5.63;3.67;;;16.30;1.00;;;;;;5069915;28;20025;-57
2023/04/23 07:25:25;;;;;;;8.98;4.85;;;16.40;33.90;;;;;;5070425;28;20378;-60
2023/04/23 07:28:18;;;;;;;4.07;3.38;;;16.60;1.00;;;;;;5070465;28;20021;-59
2023/04/23 07:30:44;;;;;;;5.18;3.25;;;16.70;99.90;;;;;;5057533;28;20526;-60
2023/04/23 07:33:10;;;;;;;6.68;4.18;;;16.80;1.00;;;;;;5072385;28;20028;-59
2023/04/23 07:35:36;;;;;;;9.32;4.28;;;17.10;1.00;;;;;;5074069;28;20048;-58
2023/04/23 07:38:03;;;;;;;5.55;4.30;;;16.90;1.00;;;;;;5074286;28;20480;-57
2023/04/23 07:40:28;;;;;;;6.05;4.18;;;17.10;1.00;;;;;;5074109;28;20118;-58
2023/04/23 07:42:55;;;;;;;4.40;3.63;;;17.30;1.00;;;;;;5072661;28;20056;-58
2023/04/23 07:45:20;;;;;;;12.23;3.67;;;17.40;99.90;;;;;;5074562;28;20495;-58
2023/04/23 07:47:48;;;;;;;18.63;4.65;;;17.80;1.00;;;;;;5077283;28;20028;-59
2023/04/23 07:50:14;;;;;;;6.80;3.88;;;18.00;41.70;;;;;;5077175;28;20021;-58
2023/04/23 07:52:40;;;;;;;9.05;4.25;;;18.30;1.00;;;;;;5075677;28;20480;-58
2023/04/23 07:55:06;;;;;;;5.57;4.18;;;18.30;99.90;;;;;;5076374;28;20107;-59
2023/04/23 07:57:32;;;;;;;7.38;3.92;;;18.60;99.90;;;;;;5074106;28;20086;-58
2023/04/23 07:59:58;;;;;;;8.45;4.00;;;18.60;1.00;;;;;;5063752;28;20041;-58
2023/04/23 08:02:25;;;;;;;10.50;3.70;;;18.70;99.90;;;;;;5087652;28;20274;-58
2023/04/23 08:04:54;;;;;;;6.05;4.30;;;19.00;1.00;;;;;;5083924;28;20367;-58
2023/04/23 08:07:19;;;;;;;6.32;4.05;;;19.10;1.00;;;;;;5073841;28;20020;-59
2023/04/23 08:09:45;;;;;;;4.32;3.70;;;19.10;99.90;;;;;;5072771;28;20023;-58
2023/04/23 08:12:11;;;;;;;7.78;4.43;;;19.20;99.90;;;;;;5073328;28;20020;-59
2023/04/23 08:14:36;;;;;;;11.38;3.90;;;19.00;99.90;;;;;;5074206;28;20025;-58
2023/04/23 08:17:02;;;;;;;15.43;11.25;;;18.80;1.00;;;;;;5074162;28;20024;-58
2023/04/23 08:19:31;;;;;;;25.52;14.15;;;19.10;1.00;;;;;;5074012;28;20021;-59
2023/04/23 08:21:56;;;;;;;8.90;4.43;;;19.10;1.00;;;;;;5071526;28;20032;-58
2023/04/23 08:24:22;;;;;;;4.63;3.80;;;18.90;99.90;;;;;;5072622;28;20020;-59
2023/04/23 08:26:47;;;;;;;4.30;3.45;;;18.60;99.90;;;;;;5072787;28;20551;-58
2023/04/23 08:29:13;;;;;;;11.65;3.83;;;18.80;99.90;;;;;;5072574;28;20031;-59
2023/04/23 08:31:39;;;;;;;8.52;4.13;;;19.10;99.90;;;;;;5074088;28;20025;-59
2023/04/23 08:34:05;;;;;;;7.90;5.38;;;19.20;1.00;;;;;;5083929;28;20036;-59
2023/04/23 08:36:30;;;;;;;7.20;4.20;;;19.00;1.00;;;;;;5068821;28;20033;-59
2023/04/23 08:38:56;;;;;;;6.75;3.28;;;19.20;1.00;;;;;;5086877;28;20028;-58
2023/04/23 08:41:26;;;;;;;6.25;3.65;;;19.00;1.00;;;;;;5086738;28;20704;-58
2023/04/23 08:44:35;;;;;;;8.98;4.70;;;19.10;1.00;;;;;;5073076;28;20025;-58
2023/04/23 08:47:05;;;;;;;4.10;3.75;;;19.10;1.00;;;;;;5073440;28;20017;-58
2023/04/23 08:49:35;;;;;;;8.07;4.20;;;19.00;99.90;;;;;;5071313;28;20506;-58
2023/04/23 08:52:16;;;;;;;7.82;4.53;;;19.20;99.90;;;;;;5072162;28;20063;-58
2023/04/23 08:54:46;;;;;;;7.20;4.55;;;19.30;99.90;;;;;;5075300;28;20024;-57
2023/04/23 08:57:15;;;;;;;5.75;4.30;;;19.30;99.90;;;;;;5073277;28;20450;-58
2023/04/23 08:59:41;;;;;;;6.15;4.95;;;19.40;99.90;;;;;;5073104;28;20036;-58
2023/04/23 09:02:09;;;;;;;7.05;4.55;;;19.60;99.90;;;;;;5072593;28;20624;-58
2023/04/23 09:04:35;;;;;;;8.13;4.70;;;18.70;99.90;;;;;;5073094;28;20032;-57
2023/04/23 09:07:01;;;;;;;10.57;4.90;;;18.40;99.90;;;;;;5073079;28;20039;-58
2023/04/23 09:09:28;;;;;;;6.82;5.05;;;18.30;99.90;;;;;;5073104;28;20468;-57
2023/04/23 09:11:57;;;;;;;5.15;4.38;;;18.20;99.90;;;;;;5073051;28;20032;-58
2023/04/23 09:14:24;;;;;;;8.45;4.82;;;18.00;99.90;;;;;;5072879;28;20460;-58
2023/04/23 09:17:05;;;;;;;6.75;5.72;;;17.70;96.70;;;;;;5071650;28;20460;-58
2023/04/23 09:19:31;;;;;;;11.15;5.25;;;17.50;41.10;;;;;;5072835;28;20032;-58
2023/04/23 09:21:57;;;;;;;9.55;5.03;;;17.40;99.90;;;;;;5073040;28;20028;-58
2023/04/23 09:24:24;;;;;;;11.35;6.40;;;17.50;99.90;;;;;;5072602;28;20593;-58
2023/04/23 09:26:51;;;;;;;12.48;5.88;;;17.60;99.90;;;;;;5072817;28;20025;-58
2023/04/23 09:29:18;;;;;;;7.68;5.80;;;17.90;1.00;;;;;;5071289;28;20078;-58
2023/04/23 09:31:48;;;;;;;13.48;6.28;;;18.00;1.00;;;;;;5072186;28;20017;-58
2023/04/23 09:34:18;;;;;;;13.38;6.85;;;18.20;1.00;;;;;;5072615;28;20394;-58
2023/04/23 09:36:44;;;;;;;11.93;5.93;;;18.50;1.00;;;;;;5072481;28;20029;-58
2023/04/23 09:39:14;;;;;;;14.93;9.05;;;18.50;99.90;;;;;;5072182;28;20438;-58
2023/04/23 09:41:40;;;;;;;10.43;5.13;;;18.90;99.90;;;;;;5071681;28;20024;-58
2023/04/23 09:44:11;;;;;;;8.88;5.53;;;18.80;99.90;;;;;;5072296;28;20098;-58
2023/04/23 09:46:43;;;;;;;5.97;5.07;;;18.90;99.90;;;;;;5072091;28;20481;-59
2023/04/23 09:49:11;;;;;;;17.50;6.57;;;18.90;99.90;;;;;;5071111;28;20462;-57
2023/04/23 09:51:41;;;;;;;7.63;5.05;;;18.00;99.90;;;;;;5071975;28;20103;-57
2023/04/23 09:54:13;;;;;;;8.70;6.35;;;17.80;1.00;;;;;;5067485;28;20056;-57
2023/04/23 09:56:43;;;;;;;6.65;5.55;;;17.20;1.00;;;;;;5066398;28;20025;-57
2023/04/23 09:59:22;;;;;;;8.80;6.20;;;16.80;1.00;;;;;;5071701;28;20055;-58
2023/04/23 10:01:47;;;;;;;6.85;5.88;;;17.30;99.90;;;;;;5070623;28;20020;-58
2023/04/23 10:04:20;;;;;;;7.15;6.22;;;18.00;99.90;;;;;;5071452;28;20031;-57
2023/04/23 10:06:56;;;;;;;10.13;6.28;;;17.60;99.90;;;;;;5071990;28;20117;-56
2023/04/23 10:09:26;;;;;;;9.57;7.15;;;17.50;99.90;;;;;;5071971;28;20069;-55
2023/04/23 10:12:03;;;;;;;8.55;6.43;;;17.90;99.90;;;;;;5071839;28;20484;-57
2023/04/23 10:14:29;;;;;;;11.77;6.28;;;18.40;1.00;;;;;;5070708;28;20043;-59
2023/04/23 10:17:00;;;;;;;6.35;5.20;;;18.70;99.90;;;;;;5071970;28;20021;-58
2023/04/23 10:19:27;;;;;;;9.23;5.07;;;19.10;99.90;;;;;;5071785;28;20028;-59
2023/04/23 10:22:00;;;;;;;8.45;4.43;;;19.20;99.90;;;;;;5070503;28;20040;-59
2023/04/23 10:24:29;;;;;;;11.43;5.32;;;18.80;99.90;;;;;;5058809;28;20106;-60
2023/04/23 10:26:59;;;;;;;9.13;4.63;;;18.70;99.90;;;;;;5057548;28;20089;-59
2023/04/23 10:29:33;;;;;;;7.50;4.97;;;18.60;99.90;;;;;;5071332;28;20012;-59
2023/04/23 10:32:01;;;;;;;7.65;4.63;;;18.00;1.00;;;;;;5059625;28;20028;-58
2023/04/23 10:34:28;;;;;;;7.38;4.32;;;17.80;1.00;;;;;;5068902;28;20032;-58
2023/04/23 10:36:56;;;;;;;7.28;4.28;;;18.10;25.30;;;;;;5071416;28;20047;-59
2023/04/23 10:39:23;;;;;;;6.70;5.05;;;18.40;3.50;;;;;;5069611;28;20113;-58
2023/04/23 10:41:51;;;;;;;9.85;4.38;;;18.00;1.00;;;;;;5071394;28;20066;-58
2023/04/23 10:44:22;;;;;;;8.07;5.28;;;17.60;1.00;;;;;;5071149;28;20036;-59
2023/04/23 10:46:53;;;;;;;7.00;4.82;;;17.70;71.30;;;;;;5077631;28;20035;-58
2023/04/23 10:49:22;;;;;;;15.95;9.80;;;18.00;99.90;;;;;;5074044;28;20020;-58
2023/04/23 10:51:48;;;;;;;8.55;5.47;;;18.10;99.90;;;;;;5071380;28;20013;-59
2023/04/23 10:54:15;;;;;;;5.85;4.90;;;17.90;24.10;;;;;;5071042;28;20040;-57
2023/04/23 10:56:42;;;;;;;8.90;4.30;;;17.70;1.00;;;;;;5071068;28;20126;-58
2023/04/23 10:59:20;;;;;;;7.70;5.30;;;18.30;60.70;;;;;;5071309;28;20480;-57
2023/04/23 11:01:48;;;;;;;10.10;5.57;;;18.70;1.00;;;;;;5071353;28;20093;-56
2023/04/23 11:04:26;;;;;;;9.55;5.10;;;18.50;1.00;;;;;;5069834;28;20035;-56
2023/04/23 11:06:54;;;;;;;8.20;4.63;;;19.00;52.60;;;;;;5074841;28;20023;-56
2023/04/23 11:09:47;;;;;;;5.85;4.72;;;19.30;1.00;;;;;;5077661;28;20017;-52
2023/04/23 11:12:31;;;;;;;6.93;3.80;;;19.70;99.90;;;;;;5077930;28;20066;-58
2023/04/23 11:15:08;;;;;;;6.80;5.15;;;19.70;99.90;;;;;;5078076;28;20108;-58
2023/04/23 11:17:33;;;;;;;8.75;4.93;;;20.00;99.90;;;;;;5077850;28;20029;-58
2023/04/23 11:20:12;;;;;;;16.60;6.03;;;20.40;99.90;;;;;;5077946;28;20685;-60
2023/04/23 11:22:49;;;;;;;10.43;4.75;;;20.60;99.90;;;;;;5077819;28;20027;-57
2023/04/23 11:25:19;;;;;;;6.18;4.53;;;20.40;1.00;;;;;;5077414;28;20021;-56
2023/04/23 11:27:46;;;;;;;11.15;4.85;;;20.40;1.00;;;;;;5077539;28;20024;-57
2023/04/23 11:30:13;;;;;;;7.38;4.32;;;20.60;1.00;;;;;;5076616;28;20024;-58
2023/04/23 11:32:41;;;;;;;6.78;5.60;;;20.90;99.90;;;;;;5076999;28;20020;-59
2023/04/23 11:35:08;;;;;;;7.72;5.43;;;21.80;99.90;;;;;;5077045;28;20028;-58
2023/04/23 11:37:39;;;;;;;7.53;4.63;;;22.90;99.90;;;;;;5077630;28;20025;-59
2023/04/23 11:40:08;;;;;;;6.18;4.05;;;23.50;1.00;;;;;;5077940;28;20383;-57
2023/04/23 11:42:50;;;;;;;6.57;4.20;;;24.50;1.00;;;;;;5077572;28;20031;-57
2023/04/23 11:45:24;;;;;;;9.45;4.78;;;23.80;1.00;;;;;;5077554;28;20495;-56
2023/04/23 11:47:55;;;;;;;5.90;4.35;;;25.10;99.90;;;;;;5077273;28;20096;-58
2023/04/23 11:50:25;;;;;;;7.55;4.40;;;26.20;99.90;;;;;;5077444;28;20130;-57
2023/04/23 11:52:51;;;;;;;12.20;4.50;;;25.90;99.90;;;;;;5077166;28;20020;-58
2023/04/23 11:55:18;;;;;;;5.90;3.60;;;25.60;99.90;;;;;;5076666;28;20112;-58
2023/04/23 11:57:45;;;;;;;8.55;3.95;;;25.90;99.90;;;;;;5076644;28;20019;-59
2023/04/23 12:00:20;;;;;;;6.75;4.32;;;26.80;99.90;;;;;;5077003;28;20121;-58
2023/04/23 12:02:53;;;;;;;5.10;3.40;;;27.10;99.90;;;;;;5077135;28;20024;-60
2023/04/23 12:05:20;;;;;;;;;;;26.60;99.90;;;;;;5077234;28;20044;-57
2023/04/23 12:07:52;;;;;;;6.75;4.65;;;27.50;99.90;;;;;;5075957;28;20477;-55
2023/04/23 12:10:21;;;;;;;5.32;3.10;;;27.70;99.90;;;;;;5077030;28;20029;-57
2023/04/23 12:12:51;;;;;;;6.53;3.40;;;26.90;99.90;;;;;;5077333;28;20557;-56
2023/04/23 12:15:18;;;;;;;8.40;3.65;;;29.70;99.90;;;;;;5077181;28;20072;-57
2023/04/23 12:18:09;;;;;;;4.82;3.50;;;30.20;99.90;;;;;;5075747;28;20036;-58
2023/04/23 12:20:35;;;;;;;6.40;3.60;;;29.50;99.90;;;;;;5073931;28;20032;-59
2023/04/23 12:23:05;;;;;;;8.27;3.90;;;29.30;99.90;;;;;;5073484;28;20089;-58
2023/04/23 12:25:32;;;;;;;9.98;3.30;;;29.50;99.90;;;;;;5072711;28;20476;-58
2023/04/23 12:28:03;;;;;;;5.82;3.30;;;29.40;99.90;;;;;;5072395;28;20398;-59
2023/04/23 12:30:30;;;;;;;6.88;4.05;;;28.40;99.90;;;;;;5072970;28;20021;-59
2023/04/23 12:33:03;;;;;;;7.40;3.17;;;28.30;99.90;;;;;;5073229;28;20025;-59
2023/04/23 12:35:52;;;;;;;;;;;28.00;99.90;;;;;;5073922;28;20031;-60
2023/04/23 12:38:26;;;;;;;8.00;3.83;;;27.80;99.90;;;;;;5075396;28;19908;-60
2023/04/23 12:40:54;;;;;;;4.20;3.53;;;27.30;99.90;;;;;;5073461;28;20024;-58
2023/04/23 12:43:20;;;;;;;5.43;3.60;;;27.30;99.90;;;;;;5073056;28;20032;-59
2023/04/23 12:45:45;;;;;;;5.47;3.38;;;27.80;99.90;;;;;;5072241;28;20667;-60
2023/04/23 12:48:12;;;;;;;5.53;3.28;;;27.70;99.90;;;;;;5070481;28;20033;-59
2023/04/23 12:50:38;;;;;;;4.97;3.30;;;27.90;99.90;;;;;;5072226;28;20020;-59
2023/04/23 12:53:04;;;;;;;4.90;2.85;;;28.20;99.90;;;;;;5072180;28;20035;-59